Terminal Aerodrome Forecast
Issued by NWS Portland, OR

Home | Current Version | Previous Version | Text Only | Print | Product List | Glossary On
Versions: 1 2 3 4 5 6 7 8 9 10 11 12 13 14 15 16 17 18 19 20
000
FTUS46 KPQR 200527
TAFTTD
TAF
KTTD 200527Z 2006/2106 09011KT P6SM OVC060
     FM201500 09016G23KT P6SM -RA OVC050
     FM201700 09016G22KT 5SM -RA OVC030
     FM202100 08013G19KT P6SM -RA OVC050
     FM210000 08011KT P6SM OVC050=

USA.gov is the U.S. government's official web portal to all federal, state and local government web resources and services.